createdAt,value
2017-06-23T00:02:16.588Z,9.65
2017-06-23T00:04:45.494Z,9.32
2017-06-23T00:07:14.383Z,9.30
2017-06-23T00:09:43.277Z,8.70
2017-06-23T00:12:12.177Z,9.93
2017-06-23T00:14:41.070Z,9.65
2017-06-23T00:17:10.738Z,9.65
2017-06-23T00:19:39.645Z,10.00
2017-06-23T00:22:08.541Z,9.57
2017-06-23T00:24:37.428Z,8.40
2017-06-23T00:27:06.317Z,9.00
2017-06-23T00:29:35.207Z,9.25
2017-06-23T00:32:04.123Z,9.77
2017-06-23T00:34:33.794Z,10.05
2017-06-23T00:37:02.680Z,9.68
2017-06-23T00:39:31.587Z,9.23
2017-06-23T00:42:01.155Z,10.10
2017-06-23T00:44:30.046Z,9.98
2017-06-23T00:46:58.945Z,10.43
2017-06-23T00:49:27.845Z,10.40
2017-06-23T00:51:56.722Z,10.93
2017-06-23T00:54:25.611Z,11.10
2017-06-23T00:56:54.514Z,11.77
2017-06-23T00:59:23.404Z,11.27
2017-06-23T01:01:52.403Z,11.55
2017-06-23T01:04:21.298Z,11.52
2017-06-23T01:06:50.196Z,11.05
2017-06-23T01:09:19.092Z,12.80
2017-06-23T01:11:47.984Z,11.20
2017-06-23T01:14:16.885Z,12.63
2017-06-23T01:16:45.793Z,11.05
2017-06-23T01:19:14.651Z,11.27
2017-06-23T01:21:43.554Z,11.20
2017-06-23T01:24:12.429Z,10.82
2017-06-23T01:26:41.319Z,10.02
2017-06-23T01:29:10.226Z,10.20
2017-06-23T01:31:39.081Z,9.00
2017-06-23T01:34:07.952Z,11.20
2017-06-23T01:36:36.842Z,9.05
2017-06-23T01:39:05.643Z,9.07
2017-06-23T01:41:34.528Z,9.55
2017-06-23T01:44:03.425Z,8.68
2017-06-23T01:46:32.300Z,8.65
2017-06-23T01:49:01.194Z,9.35
2017-06-23T01:51:30.082Z,8.38
2017-06-23T01:53:58.981Z,9.00
2017-06-23T01:56:27.859Z,9.43
2017-06-23T01:58:56.722Z,9.27
2017-06-23T02:01:25.608Z,8.50
2017-06-23T02:03:54.504Z,9.10
2017-06-23T02:06:23.364Z,8.27
2017-06-23T02:08:53.039Z,6.70
2017-06-23T02:11:21.928Z,7.40
2017-06-23T02:13:50.808Z,8.20
2017-06-23T02:16:19.699Z,7.60
2017-06-23T02:18:48.608Z,8.32
2017-06-23T02:21:17.498Z,6.87
2017-06-23T02:23:46.389Z,7.60
2017-06-23T02:26:15.244Z,8.20
2017-06-23T02:28:44.090Z,6.62
2017-06-23T02:31:13.753Z,7.80
2017-06-23T02:33:42.641Z,7.50
2017-06-23T02:36:11.505Z,7.72
2017-06-23T02:38:40.388Z,7.25
2017-06-23T02:41:10.041Z,6.95
2017-06-23T02:43:38.934Z,6.82
2017-06-23T02:46:07.816Z,6.78
2017-06-23T02:48:36.696Z,6.45
2017-06-23T02:51:05.582Z,5.97
2017-06-23T02:53:34.471Z,6.75
2017-06-23T02:56:03.351Z,7.07
2017-06-23T02:58:32.958Z,7.85
2017-06-23T03:01:02.612Z,7.10
2017-06-23T03:03:31.575Z,8.70
2017-06-23T03:06:00.465Z,9.05
2017-06-23T03:08:29.364Z,10.18
2017-06-23T03:10:58.255Z,11.63
2017-06-23T03:13:27.157Z,11.18
2017-06-23T03:15:56.059Z,11.98
2017-06-23T03:18:24.966Z,13.98
2017-06-23T03:20:53.868Z,14.60
2017-06-23T03:23:22.764Z,15.15
2017-06-23T03:25:51.360Z,15.15
2017-06-23T03:28:20.245Z,15.55
2017-06-23T03:30:49.141Z,16.00
2017-06-23T03:33:18.805Z,15.45
2017-06-23T03:35:47.692Z,15.90
2017-06-23T03:38:16.580Z,17.30
2017-06-23T03:40:45.470Z,16.00
2017-06-23T03:43:14.360Z,16.48
2017-06-23T03:45:43.348Z,15.77
2017-06-23T03:48:12.251Z,17.70
2017-06-23T03:50:41.150Z,17.70
2017-06-23T03:53:10.037Z,16.98
2017-06-23T03:55:38.902Z,18.30
2017-06-23T03:58:07.797Z,18.48
2017-06-23T04:00:36.652Z,18.45
2017-06-23T04:03:05.551Z,18.05
2017-06-23T04:05:34.448Z,18.02
2017-06-23T04:08:04.111Z,19.00
2017-06-23T04:10:33.014Z,18.50
2017-06-23T04:13:01.917Z,17.30
2017-06-23T04:15:30.814Z,18.12
2017-06-23T04:17:59.727Z,19.35
2017-06-23T04:20:29.379Z,18.75
2017-06-23T04:22:58.279Z,19.02
2017-06-23T04:25:27.184Z,18.58
2017-06-23T04:27:56.085Z,20.80
2017-06-23T04:30:24.956Z,21.08
2017-06-23T04:32:53.829Z,20.70
2017-06-23T04:35:22.720Z,20.80
2017-06-23T04:37:51.651Z,20.80
2017-06-23T04:40:20.557Z,21.50
2017-06-23T04:42:49.457Z,21.45
2017-06-23T04:45:18.353Z,21.20
2017-06-23T04:47:48.013Z,22.85
2017-06-23T04:50:16.907Z,20.55
2017-06-23T04:52:45.805Z,20.37
2017-06-23T04:55:14.708Z,21.92
2017-06-23T04:57:43.600Z,20.60
2017-06-23T05:00:12.466Z,22.15
2017-06-23T05:02:41.380Z,20.37
2017-06-23T05:05:10.282Z,22.77
2017-06-23T05:07:39.174Z,22.75
2017-06-23T05:10:08.069Z,21.85
2017-06-23T05:12:36.973Z,20.75
2017-06-23T05:15:05.866Z,22.73
2017-06-23T05:17:34.731Z,22.98
2017-06-23T05:20:03.642Z,22.92
2017-06-23T05:22:32.545Z,21.52
2017-06-23T05:25:01.428Z,23.67
2017-06-23T05:27:30.318Z,23.80
2017-06-23T05:29:59.208Z,23.12
2017-06-23T05:32:28.074Z,21.23
2017-06-23T05:34:56.946Z,23.98
2017-06-23T05:37:25.836Z,23.90
2017-06-23T05:39:54.722Z,24.73
2017-06-23T05:42:23.615Z,22.90
2017-06-23T05:44:52.517Z,25.80
2017-06-23T05:47:21.416Z,25.15
2017-06-23T05:49:50.329Z,22.30
2017-06-23T05:52:19.232Z,22.40
2017-06-23T05:54:48.129Z,22.52
2017-06-23T05:57:17.020Z,24.12
2017-06-23T05:59:45.915Z,23.85
2017-06-23T06:02:15.604Z,23.85
2017-06-23T06:04:44.502Z,22.05
2017-06-23T06:07:13.396Z,20.88
2017-06-23T06:09:42.301Z,21.83
2017-06-23T06:12:11.927Z,22.87
2017-06-23T06:14:40.831Z,22.77
2017-06-23T06:17:09.734Z,22.52
2017-06-23T06:19:38.637Z,22.27
2017-06-23T06:22:07.527Z,21.90
2017-06-23T06:24:36.426Z,23.42
2017-06-23T06:27:05.327Z,20.67
2017-06-23T06:29:34.257Z,21.77
2017-06-23T06:32:03.919Z,21.50
2017-06-23T06:34:32.825Z,21.55
2017-06-23T06:37:01.723Z,22.55
2017-06-23T06:39:30.616Z,21.95
2017-06-23T06:41:59.572Z,20.60
2017-06-23T06:44:28.477Z,21.00
2017-06-23T06:46:57.363Z,20.65
2017-06-23T06:49:26.260Z,20.15
2017-06-23T06:51:55.122Z,20.35
2017-06-23T06:54:24.037Z,21.65
2017-06-23T06:56:52.941Z,21.12
2017-06-23T06:59:21.846Z,19.08
2017-06-23T07:01:50.741Z,18.05
2017-06-23T07:04:19.640Z,19.80
2017-06-23T07:06:48.538Z,20.05
2017-06-23T07:09:17.434Z,19.73
2017-06-23T07:11:46.318Z,17.67
2017-06-23T07:14:15.216Z,19.42
2017-06-23T07:16:44.118Z,19.45
2017-06-23T07:19:13.755Z,19.27
2017-06-23T07:21:42.655Z,19.23
2017-06-23T07:24:11.653Z,19.05
2017-06-23T07:26:40.553Z,18.30
2017-06-23T07:29:09.445Z,18.92
2017-06-23T07:31:38.350Z,19.37
2017-06-23T07:34:07.261Z,20.55
2017-06-23T07:36:36.165Z,19.25
2017-06-23T07:39:04.374Z,20.10
2017-06-23T07:41:33.275Z,18.58
2017-06-23T07:44:02.176Z,21.52
2017-06-23T07:46:31.069Z,20.60
2017-06-23T07:48:59.964Z,19.50
2017-06-23T07:51:28.856Z,20.85
2017-06-23T07:53:57.841Z,19.60
2017-06-23T07:56:26.742Z,20.35
2017-06-23T07:58:55.640Z,18.90
2017-06-23T08:01:24.536Z,20.25
2017-06-23T08:03:53.445Z,20.12
2017-06-23T08:06:22.404Z,18.92
2017-06-23T08:08:51.305Z,18.73
2017-06-23T08:11:20.196Z,19.60
2017-06-23T08:13:49.097Z,20.55
2017-06-23T08:16:17.996Z,20.83
2017-06-23T08:18:46.897Z,21.55
2017-06-23T08:21:15.801Z,22.05
2017-06-23T08:23:44.687Z,19.52
2017-06-23T08:26:13.597Z,20.70
2017-06-23T08:28:42.497Z,20.65
2017-06-23T08:31:12.168Z,20.62
2017-06-23T08:33:41.069Z,21.52
2017-06-23T08:36:09.966Z,19.98
2017-06-23T08:38:38.859Z,21.12
2017-06-23T08:41:07.768Z,21.98
2017-06-23T08:43:36.668Z,21.75
2017-06-23T08:46:05.591Z,20.98
2017-06-23T08:48:34.489Z,21.90
2017-06-23T08:51:03.383Z,20.88
2017-06-23T08:53:32.280Z,19.70
2017-06-23T08:56:01.177Z,21.40
2017-06-23T08:58:30.050Z,20.50
2017-06-23T09:00:58.939Z,20.60
2017-06-23T09:03:27.830Z,18.23
2017-06-23T09:05:56.735Z,17.77
2017-06-23T09:08:25.645Z,18.20
2017-06-23T09:10:54.557Z,18.62
2017-06-23T09:13:23.260Z,19.20
2017-06-23T09:15:52.187Z,18.10
2017-06-23T09:18:21.048Z,18.05
2017-06-23T09:20:49.977Z,15.90
2017-06-23T09:23:18.893Z,15.85
2017-06-23T09:25:47.801Z,15.30
2017-06-23T09:28:16.692Z,15.35
2017-06-23T09:30:45.594Z,14.48
2017-06-23T09:33:14.497Z,13.27
2017-06-23T09:35:43.397Z,14.20
2017-06-23T09:38:13.068Z,12.80
2017-06-23T09:40:41.968Z,12.43
2017-06-23T09:43:10.878Z,13.35
2017-06-23T09:45:40.589Z,12.00
2017-06-23T09:48:10.247Z,12.88
2017-06-23T09:50:39.143Z,13.25
2017-06-23T09:53:08.043Z,13.95
2017-06-23T09:55:36.940Z,12.37
2017-06-23T09:58:05.845Z,13.85
2017-06-23T10:00:34.745Z,12.07
2017-06-23T10:03:03.653Z,13.55
2017-06-23T10:05:32.555Z,12.15
2017-06-23T10:08:01.450Z,13.00
2017-06-23T10:10:30.350Z,14.30
2017-06-23T10:12:59.257Z,12.52
2017-06-23T10:15:28.148Z,14.45
2017-06-23T10:17:57.057Z,13.90
2017-06-23T10:20:25.976Z,15.45
2017-06-23T10:22:54.889Z,13.85
2017-06-23T10:25:23.788Z,13.07
2017-06-23T10:27:53.461Z,14.80
2017-06-23T10:30:22.331Z,14.40
2017-06-23T10:32:51.220Z,14.98
2017-06-23T10:35:20.127Z,15.82
2017-06-23T10:37:49.036Z,13.75
2017-06-23T10:40:17.937Z,13.18
2017-06-23T10:42:46.845Z,14.25
2017-06-23T10:45:15.748Z,14.07
2017-06-23T10:47:44.656Z,14.93
2017-06-23T10:50:13.565Z,13.80
2017-06-23T10:52:42.464Z,12.98
2017-06-23T10:55:11.172Z,14.00
2017-06-23T10:57:40.069Z,14.60
2017-06-23T11:00:08.981Z,14.00
2017-06-23T11:02:37.876Z,14.65
2017-06-23T11:05:06.767Z,13.35
2017-06-23T11:07:35.669Z,12.10
2017-06-23T11:10:04.380Z,13.05
2017-06-23T11:12:33.285Z,12.30
2017-06-23T11:15:02.140Z,13.75
2017-06-23T11:17:31.051Z,12.27
2017-06-23T11:19:59.957Z,12.40
2017-06-23T11:22:28.866Z,13.30
2017-06-23T11:24:57.763Z,13.23
2017-06-23T11:27:26.747Z,12.20
2017-06-23T11:29:55.647Z,11.30
2017-06-23T11:32:24.557Z,11.68
2017-06-23T11:34:53.426Z,11.27
2017-06-23T11:37:22.294Z,11.52
2017-06-23T11:39:51.217Z,11.30
2017-06-23T11:42:20.209Z,11.32
2017-06-23T11:44:49.103Z,10.30
2017-06-23T11:47:18.002Z,10.80
2017-06-23T11:49:46.892Z,10.27
2017-06-23T11:52:15.798Z,11.32
2017-06-23T11:54:44.685Z,9.98
2017-06-23T11:57:13.581Z,9.68
2017-06-23T11:59:42.485Z,9.68
2017-06-23T12:02:11.371Z,8.85
2017-06-23T12:04:40.262Z,8.00
2017-06-23T12:07:09.148Z,8.13
2017-06-23T12:09:38.053Z,8.23
2017-06-23T12:12:07.701Z,7.72
2017-06-23T12:14:36.588Z,7.12
2017-06-23T12:17:05.485Z,7.75
2017-06-23T12:19:34.385Z,9.38
2017-06-23T12:22:03.286Z,8.32
2017-06-23T12:24:32.179Z,9.00
2017-06-23T12:27:01.082Z,8.25
2017-06-23T12:29:29.980Z,11.07
2017-06-23T12:31:58.885Z,8.85
2017-06-23T12:34:27.780Z,9.82
2017-06-23T12:36:57.464Z,10.20
2017-06-23T12:39:26.361Z,10.20
2017-06-23T12:41:55.263Z,10.00
2017-06-23T12:44:24.156Z,10.20
2017-06-23T12:46:53.098Z,8.90
2017-06-23T12:49:21.990Z,8.50
2017-06-23T12:51:50.886Z,8.13
2017-06-23T12:54:19.777Z,7.68
2017-06-23T12:56:49.600Z,7.93
2017-06-23T12:59:18.457Z,7.87
2017-06-23T13:01:48.127Z,7.70
2017-06-23T13:04:17.013Z,7.35
2017-06-23T13:06:45.901Z,7.22
2017-06-23T13:09:14.801Z,7.07
2017-06-23T13:11:43.681Z,7.40
2017-06-23T13:14:12.563Z,6.80
2017-06-23T13:16:41.466Z,8.00
2017-06-23T13:19:10.389Z,7.22
2017-06-23T13:21:39.001Z,7.50
2017-06-23T13:24:07.890Z,8.00
2017-06-23T13:26:37.539Z,7.43
2017-06-23T13:29:06.924Z,7.03
2017-06-23T13:31:35.553Z,8.10
2017-06-23T13:34:04.400Z,7.40
2017-06-23T13:36:33.292Z,8.40
2017-06-23T13:39:02.194Z,7.80
2017-06-23T13:41:30.808Z,7.70
2017-06-23T13:43:59.446Z,6.50
2017-06-23T13:46:28.074Z,7.00
2017-06-23T13:48:57.415Z,6.93
2017-06-23T13:51:26.050Z,6.30
2017-06-23T13:53:55.583Z,5.83
2017-06-23T13:56:24.841Z,5.80
2017-06-23T13:58:53.460Z,4.50
2017-06-23T14:01:22.087Z,4.70
2017-06-23T14:03:50.718Z,5.30
2017-06-23T14:06:19.603Z,4.82
2017-06-23T14:08:48.510Z,5.15
2017-06-23T14:11:17.383Z,4.87
2017-06-23T14:13:46.795Z,6.03
2017-06-23T14:16:15.494Z,5.80
2017-06-23T14:18:44.118Z,6.47
2017-06-23T14:21:12.757Z,6.50
2017-06-23T14:23:42.140Z,6.93
2017-06-23T14:26:10.769Z,7.03
2017-06-23T14:28:39.405Z,6.67
2017-06-23T14:31:08.026Z,7.17
2017-06-23T14:33:36.656Z,7.87
2017-06-23T14:36:05.289Z,8.50
2017-06-23T14:38:34.634Z,7.37
2017-06-23T14:41:03.212Z,7.03
2017-06-23T14:43:31.821Z,6.47
2017-06-23T14:46:00.448Z,6.97
2017-06-23T14:48:29.342Z,5.65
2017-06-23T14:50:58.244Z,6.25
2017-06-23T14:53:27.120Z,6.00
2017-06-23T14:55:56.016Z,5.90
2017-06-23T14:58:25.397Z,6.00
2017-06-23T15:00:54.268Z,5.40
2017-06-23T15:03:23.161Z,5.82
2017-06-23T15:05:51.793Z,5.63
2017-06-23T15:08:20.416Z,5.60
2017-06-23T15:10:50.028Z,5.10
2017-06-23T15:13:19.667Z,5.15
2017-06-23T15:15:48.548Z,4.93
2017-06-23T15:18:17.178Z,5.80
2017-06-23T15:20:45.796Z,5.70
2017-06-23T15:23:14.412Z,5.70
2017-06-23T15:25:43.310Z,6.05
2017-06-23T15:28:12.207Z,6.37
2017-06-23T15:30:40.838Z,5.47
2017-06-23T15:33:09.744Z,5.65
2017-06-23T15:35:38.360Z,6.20
2017-06-23T15:38:07.214Z,5.47
2017-06-23T15:40:36.860Z,6.35
2017-06-23T15:43:05.491Z,6.67
2017-06-23T15:45:34.123Z,6.90
2017-06-23T15:48:02.740Z,6.57
2017-06-23T15:50:31.633Z,6.60
2017-06-23T15:53:00.522Z,6.57
2017-06-23T15:55:29.925Z,7.40
2017-06-23T15:57:58.812Z,6.65
2017-06-23T16:00:28.200Z,6.53
2017-06-23T16:02:57.084Z,7.18
2017-06-23T16:05:25.981Z,7.55
2017-06-23T16:07:54.884Z,7.70
2017-06-23T16:10:23.767Z,7.87
2017-06-23T16:12:52.702Z,7.95
2017-06-23T16:15:21.591Z,8.55
2017-06-23T16:17:50.474Z,8.05
2017-06-23T16:20:19.364Z,9.38
2017-06-23T16:22:48.244Z,8.38
2017-06-23T16:25:17.114Z,8.30
2017-06-23T16:27:45.996Z,8.70
2017-06-23T16:30:14.887Z,8.55
2017-06-23T16:32:43.785Z,8.77
2017-06-23T16:35:12.675Z,9.10
2017-06-23T16:37:41.554Z,8.18
2017-06-23T16:40:10.186Z,10.13
2017-06-23T16:42:39.089Z,9.82
2017-06-23T16:45:07.997Z,10.60
2017-06-23T16:47:37.677Z,9.52
2017-06-23T16:50:06.572Z,10.55
2017-06-23T16:52:35.472Z,9.70
2017-06-23T16:55:04.361Z,8.65
2017-06-23T16:57:33.259Z,8.80
2017-06-23T17:00:02.157Z,9.60
2017-06-23T17:02:31.782Z,8.65
2017-06-23T17:05:01.432Z,9.85
2017-06-23T17:07:31.278Z,9.23
2017-06-23T17:10:00.183Z,9.70
2017-06-23T17:12:29.114Z,11.60
2017-06-23T17:14:58.013Z,9.60
2017-06-23T17:17:26.915Z,10.63
2017-06-23T17:19:55.809Z,9.75
2017-06-23T17:22:24.692Z,9.60
2017-06-23T17:24:53.582Z,9.60
2017-06-23T17:27:22.489Z,10.70
2017-06-23T17:29:51.463Z,9.90
2017-06-23T17:32:20.363Z,9.95
2017-06-23T17:34:49.354Z,10.00
2017-06-23T17:37:18.323Z,10.63
2017-06-23T17:39:47.236Z,11.70
2017-06-23T17:42:16.142Z,10.88
2017-06-23T17:44:46.039Z,11.00
2017-06-23T17:47:14.940Z,11.23
2017-06-23T17:49:43.845Z,10.82
2017-06-23T17:52:12.757Z,11.00
2017-06-23T17:54:41.665Z,12.00
2017-06-23T17:57:10.576Z,13.55
2017-06-23T17:59:39.472Z,12.20
2017-06-23T18:02:08.384Z,12.70
2017-06-23T18:04:37.300Z,11.52
2017-06-23T18:07:06.205Z,12.48
2017-06-23T18:09:35.107Z,12.85
2017-06-23T18:12:04.014Z,14.13
2017-06-23T18:14:34.002Z,12.70
2017-06-23T18:17:02.911Z,14.18
2017-06-23T18:19:32.583Z,14.00
2017-06-23T18:22:01.509Z,13.20
2017-06-23T18:24:30.430Z,12.52
2017-06-23T18:27:00.162Z,14.15
2017-06-23T18:29:29.100Z,13.50
2017-06-23T18:31:57.991Z,14.30
2017-06-23T18:34:26.897Z,14.10
2017-06-23T18:36:55.801Z,14.07
2017-06-23T18:39:25.481Z,14.30
2017-06-23T18:41:56.208Z,16.10
2017-06-23T18:44:25.385Z,15.20
2017-06-23T18:46:54.298Z,15.40
2017-06-23T18:49:23.206Z,15.07
2017-06-23T18:51:52.103Z,15.23
2017-06-23T18:54:20.999Z,13.75
2017-06-23T18:56:49.917Z,15.48
2017-06-23T18:59:18.827Z,14.80
2017-06-23T19:01:47.730Z,15.48
2017-06-23T19:04:16.619Z,14.70
2017-06-23T19:06:45.519Z,14.60
2017-06-23T19:09:14.424Z,15.43
2017-06-23T19:11:43.323Z,15.00
2017-06-23T19:14:12.244Z,14.02
2017-06-23T19:16:41.162Z,14.60
2017-06-23T19:19:10.064Z,14.40
2017-06-23T19:21:38.972Z,13.90
2017-06-23T19:24:07.876Z,13.30
2017-06-23T19:26:36.773Z,14.05
2017-06-23T19:29:05.681Z,16.80
2017-06-23T19:31:34.571Z,19.40
2017-06-23T19:34:03.463Z,17.10
2017-06-23T19:36:32.410Z,14.98
2017-06-23T19:39:01.313Z,15.70
2017-06-23T19:41:30.223Z,15.85
2017-06-23T19:43:59.252Z,14.25
2017-06-23T19:46:28.152Z,15.43
2017-06-23T19:48:57.830Z,15.60
2017-06-23T19:51:26.740Z,15.05
2017-06-23T19:53:56.417Z,14.73
2017-06-23T19:56:25.312Z,15.55
2017-06-23T19:58:54.221Z,17.98
2017-06-23T20:01:23.121Z,17.40
2017-06-23T20:03:52.021Z,16.75
2017-06-23T20:06:21.659Z,16.45
2017-06-23T20:08:50.570Z,16.70
2017-06-23T20:11:19.469Z,16.33
2017-06-23T20:13:48.372Z,15.68
2017-06-23T20:16:17.281Z,16.30
2017-06-23T20:18:46.176Z,16.37
2017-06-23T20:21:15.090Z,18.15
2017-06-23T20:23:44.759Z,18.10
2017-06-23T20:26:13.662Z,16.62
2017-06-23T20:28:42.571Z,17.92
2017-06-23T20:31:11.464Z,18.35
2017-06-23T20:33:41.133Z,18.20
2017-06-23T20:36:10.033Z,20.33
2017-06-23T20:38:38.916Z,19.23
2017-06-23T20:41:07.813Z,19.25
2017-06-23T20:43:36.723Z,19.65
2017-06-23T20:46:05.634Z,21.25
2017-06-23T20:48:34.560Z,22.85
2017-06-23T20:51:03.461Z,20.30
2017-06-23T20:53:32.368Z,21.23
2017-06-23T20:56:01.250Z,20.30
2017-06-23T20:58:30.156Z,19.65
2017-06-23T21:00:59.069Z,20.05
2017-06-23T21:03:27.955Z,18.65
2017-06-23T21:05:56.852Z,19.33
2017-06-23T21:08:25.807Z,20.52
2017-06-23T21:10:54.713Z,19.85
2017-06-23T21:13:23.608Z,20.48
2017-06-23T21:15:52.519Z,20.60
2017-06-23T21:18:21.378Z,23.48
2017-06-23T21:20:50.367Z,21.85
2017-06-23T21:23:19.271Z,23.02
2017-06-23T21:25:48.168Z,23.40
2017-06-23T21:28:17.068Z,23.77
2017-06-23T21:30:45.943Z,24.33
2017-06-23T21:33:14.619Z,24.08
2017-06-23T21:35:43.724Z,23.50
2017-06-23T21:38:12.622Z,24.02
2017-06-23T21:40:52.933Z,23.55
2017-06-23T21:43:23.509Z,27.62
2017-06-23T21:45:52.404Z,24.90
2017-06-23T21:48:21.309Z,25.85
2017-06-23T21:50:50.212Z,23.90
2017-06-23T21:53:19.113Z,23.45
2017-06-23T21:55:48.058Z,23.90
2017-06-23T21:58:16.961Z,25.20
2017-06-23T22:00:45.869Z,25.12
2017-06-23T22:03:14.760Z,25.20
2017-06-23T22:05:43.664Z,25.83
2017-06-23T22:08:12.561Z,25.77
2017-06-23T22:10:41.473Z,25.30
2017-06-23T22:13:11.137Z,25.60
2017-06-23T22:15:40.043Z,25.55
2017-06-23T22:18:08.941Z,25.35
2017-06-23T22:20:37.839Z,24.70
2017-06-23T22:23:06.728Z,25.17
2017-06-23T22:25:35.619Z,26.30
2017-06-23T22:28:04.505Z,26.42
2017-06-23T22:30:33.396Z,25.50
2017-06-23T22:33:02.293Z,25.80
2017-06-23T22:35:31.162Z,25.67
2017-06-23T22:38:00.069Z,24.60
2017-06-23T22:40:28.956Z,25.92
2017-06-23T22:42:57.848Z,24.55
2017-06-23T22:45:26.754Z,24.83
2017-06-23T22:47:55.658Z,24.10
2017-06-23T22:50:24.557Z,25.27
2017-06-23T22:52:54.179Z,25.58
2017-06-23T22:55:23.845Z,24.15
2017-06-23T22:57:52.736Z,23.60
2017-06-23T23:00:21.635Z,22.73
2017-06-23T23:02:50.537Z,22.60
2017-06-23T23:05:19.793Z,22.90
2017-06-23T23:07:48.689Z,23.90
2017-06-23T23:10:17.582Z,22.08
2017-06-23T23:12:46.471Z,28.45
2017-06-23T23:15:15.523Z,27.33
2017-06-23T23:17:44.409Z,28.50
2017-06-23T23:20:13.295Z,26.45
2017-06-23T23:22:42.196Z,26.55
2017-06-23T23:25:11.087Z,25.95
2017-06-23T23:27:39.971Z,26.60
2017-06-23T23:30:08.857Z,26.33
2017-06-23T23:32:37.747Z,27.45
2017-06-23T23:35:06.644Z,26.80
2017-06-23T23:37:35.571Z,26.83
2017-06-23T23:40:04.431Z,26.85
2017-06-23T23:42:33.322Z,26.08
2017-06-23T23:45:02.212Z,26.52
2017-06-23T23:47:31.100Z,25.67
2017-06-23T23:49:59.994Z,25.60
2017-06-23T23:52:28.938Z,24.75
2017-06-23T23:54:57.828Z,24.95
2017-06-23T23:57:26.719Z,25.20
2017-06-23T23:59:55.607Z,25.75
